Time;durP1;ratioP1;P1;durP2;ratioP2;P2;SDS_P1;SDS_P2;PMS_P1;PMS_P2;Temp;Humidity;BMP_temperature;BMP_pressure;BME280_temperature;BME280_humidity;BME280_pressure;Samples;Min_cycle;Max_cycle;Signal;HPM_P1;HPM_P2
2021/10/13 00:02:29;;;;;;;12.60;9.30;;;9.60;84.90;;;;;;6196431;28;20426;-76
2021/10/13 00:05:31;;;;;;;12.77;9.87;;;9.50;84.20;;;;;;6195823;28;20422;-76
2021/10/13 00:08:32;;;;;;;14.40;10.15;;;9.40;84.80;;;;;;6197038;28;20438;-76
2021/10/13 00:11:35;;;;;;;20.40;10.50;;;9.30;85.30;;;;;;6195991;28;20922;-75
2021/10/13 00:14:38;;;;;;;12.88;9.05;;;9.30;85.70;;;;;;6196311;28;20505;-75
2021/10/13 00:17:40;;;;;;;11.45;9.52;;;9.20;85.60;;;;;;6196027;28;20422;-75
2021/10/13 00:20:42;;;;;;;10.25;8.35;;;9.10;85.60;;;;;;6196116;28;20808;-76
2021/10/13 00:23:44;;;;;;;11.55;8.52;;;9.10;85.30;;;;;;6195992;28;20415;-75
2021/10/13 00:26:45;;;;;;;10.05;8.02;;;9.00;85.30;;;;;;6196059;28;20446;-76
2021/10/13 00:29:48;;;;;;;9.82;7.93;;;9.00;85.00;;;;;;6195859;28;20413;-76
2021/10/13 00:32:50;;;;;;;11.30;8.45;;;8.90;84.50;;;;;;6196297;28;20430;-76
2021/10/13 00:35:52;;;;;;;11.48;8.15;;;8.90;84.80;;;;;;6195806;28;20544;-75
2021/10/13 00:38:53;;;;;;;12.70;8.40;;;8.80;83.90;;;;;;6195560;28;20418;-75
2021/10/13 00:41:56;;;;;;;13.88;8.77;;;8.70;83.40;;;;;;6209044;28;20528;-75
2021/10/13 00:45:00;;;;;;;13.75;9.07;;;8.60;83.60;;;;;;6219965;28;20440;-75
2021/10/13 00:48:02;;;;;;;12.00;7.85;;;8.50;85.10;;;;;;6198182;28;20509;-75
2021/10/13 00:51:04;;;;;;;14.70;10.02;;;8.40;84.80;;;;;;6195458;28;20455;-75
2021/10/13 00:54:05;;;;;;;12.63;9.77;;;8.40;84.00;;;;;;6195634;28;20426;-75
2021/10/13 00:57:07;;;;;;;10.48;8.48;;;8.30;84.80;;;;;;6195743;28;20597;-75
2021/10/13 01:00:12;;;;;;;13.18;8.95;;;8.30;84.90;;;;;;6196175;28;20433;-75
2021/10/13 01:03:23;;;;;;;12.77;8.37;;;8.20;84.90;;;;;;6195502;28;20504;-76
2021/10/13 01:06:33;;;;;;;13.85;8.43;;;8.20;85.00;;;;;;6195291;28;20919;-75
2021/10/13 01:09:44;;;;;;;9.93;7.67;;;8.10;85.00;;;;;;6195322;28;20414;-75
2021/10/13 01:12:56;;;;;;;11.43;7.65;;;8.10;85.10;;;;;;6196210;28;20441;-75
2021/10/13 01:16:10;;;;;;;9.95;7.30;;;8.10;84.80;;;;;;6198267;28;20769;-75
2021/10/13 01:19:27;;;;;;;8.48;7.45;;;8.00;84.60;;;;;;6199786;28;20423;-75
2021/10/13 01:23:00;;;;;;;6.70;6.10;;;8.00;84.50;;;;;;6200293;28;20421;-75
2021/10/13 01:26:11;;;;;;;8.27;6.35;;;7.90;84.90;;;;;;6199912;28;20924;-75
2021/10/13 01:29:19;;;;;;;8.98;6.93;;;7.90;83.60;;;;;;6199595;28;21023;-76
2021/10/13 01:32:26;;;;;;;11.25;7.13;;;8.10;84.50;;;;;;6200208;28;20904;-75
2021/10/13 01:35:30;;;;;;;9.33;7.40;;;7.80;84.00;;;;;;6199597;28;20455;-75
2021/10/13 01:38:38;;;;;;;7.97;6.95;;;7.80;84.70;;;;;;6199443;28;20422;-75
2021/10/13 01:41:45;;;;;;;9.32;8.00;;;7.70;84.50;;;;;;6200203;28;20430;-76
2021/10/13 01:44:50;;;;;;;9.98;7.70;;;7.70;84.50;;;;;;6224202;28;20433;-75
2021/10/13 01:47:53;;;;;;;7.75;6.35;;;7.60;84.90;;;;;;6223632;28;20424;-75
2021/10/13 01:50:56;;;;;;;7.43;6.00;;;7.60;84.80;;;;;;6223489;28;20416;-76
2021/10/13 01:53:59;;;;;;;10.18;6.45;;;7.60;84.50;;;;;;6223780;28;20409;-75
2021/10/13 01:57:02;;;;;;;8.33;7.43;;;7.60;84.30;;;;;;6223449;28;20933;-75
2021/10/13 02:00:08;;;;;;;10.57;7.67;;;7.50;84.00;;;;;;6223604;28;20521;-75
2021/10/13 02:03:10;;;;;;;8.30;7.18;;;7.50;83.90;;;;;;6223288;28;20421;-75
2021/10/13 02:06:12;;;;;;;10.55;7.53;;;7.40;83.60;;;;;;6223496;28;20507;-75
2021/10/13 02:09:16;;;;;;;11.57;8.07;;;7.40;83.80;;;;;;6223164;28;20436;-75
2021/10/13 02:12:20;;;;;;;7.70;6.90;;;7.30;84.50;;;;;;6223692;28;21038;-75
2021/10/13 02:15:26;;;;;;;11.85;7.90;;;7.20;84.40;;;;;;6222950;28;20416;-75
2021/10/13 02:18:30;;;;;;;8.95;7.00;;;7.20;84.00;;;;;;6222982;28;20429;-75
2021/10/13 02:21:34;;;;;;;8.25;6.90;;;7.50;84.60;;;;;;6223021;28;20416;-75
2021/10/13 02:24:42;;;;;;;8.10;6.85;;;7.20;84.50;;;;;;6223212;28;20494;-76
2021/10/13 02:27:47;;;;;;;10.10;7.72;;;7.10;84.10;;;;;;6222175;28;20795;-75
2021/10/13 02:30:51;;;;;;;7.97;7.18;;;7.10;84.00;;;;;;6222484;28;20424;-75
2021/10/13 02:33:53;;;;;;;9.38;7.55;;;7.00;84.00;;;;;;6222157;28;20424;-75
2021/10/13 02:36:55;;;;;;;10.00;7.60;;;7.00;84.20;;;;;;6222908;28;20443;-75
2021/10/13 02:39:56;;;;;;;10.80;7.10;;;6.90;84.20;;;;;;6222245;28;20417;-76
2021/10/13 02:42:58;;;;;;;13.10;8.02;;;6.90;84.30;;;;;;6212933;28;20504;-75
2021/10/13 02:46:09;;;;;;;9.45;7.15;;;6.80;84.20;;;;;;6199054;28;20422;-75
2021/10/13 02:49:21;;;;;;;9.18;7.40;;;6.80;84.50;;;;;;6197957;28;20434;-75
2021/10/13 02:52:29;;;;;;;8.90;7.93;;;6.80;84.20;;;;;;6199558;28;20436;-75
2021/10/13 02:55:34;;;;;;;11.50;7.72;;;6.80;84.10;;;;;;6197700;28;20935;-75
2021/10/13 02:58:41;;;;;;;10.30;7.80;;;6.70;83.80;;;;;;6197787;28;20429;-75
2021/10/13 03:01:45;;;;;;;12.20;8.73;;;6.70;83.70;;;;;;6239927;28;20451;-75
2021/10/13 03:04:50;;;;;;;11.70;7.70;;;6.60;83.80;;;;;;6247236;28;20431;-75
2021/10/13 03:07:56;;;;;;;13.07;8.53;;;6.60;84.00;;;;;;6246468;28;20442;-75
2021/10/13 03:10:59;;;;;;;10.95;9.32;;;6.60;83.80;;;;;;6246038;28;20415;-76
2021/10/13 03:14:02;;;;;;;11.18;8.50;;;6.50;83.70;;;;;;6246376;28;20932;-75
2021/10/13 03:17:06;;;;;;;11.65;8.88;;;6.60;83.80;;;;;;6246296;28;20435;-75
2021/10/13 03:20:10;;;;;;;12.57;8.30;;;6.40;84.00;;;;;;6246443;28;20430;-75
2021/10/13 03:23:14;;;;;;;9.32;7.97;;;6.40;84.30;;;;;;6245950;28;20425;-75
2021/10/13 03:26:15;;;;;;;9.27;7.40;;;6.40;84.20;;;;;;6246116;28;20418;-75
2021/10/13 03:29:18;;;;;;;9.50;7.37;;;6.40;84.10;;;;;;6245888;28;20437;-76
2021/10/13 03:32:21;;;;;;;11.43;6.63;;;6.40;83.90;;;;;;6246411;28;20929;-75
2021/10/13 03:35:24;;;;;;;9.80;7.57;;;6.30;83.80;;;;;;6245491;28;20416;-75
2021/10/13 03:38:26;;;;;;;9.87;7.67;;;6.30;83.70;;;;;;6244985;28;20424;-76
2021/10/13 03:41:28;;;;;;;9.07;7.32;;;6.30;83.80;;;;;;6245671;28;20422;-75
2021/10/13 03:44:30;;;;;;;8.02;6.82;;;6.30;83.50;;;;;;6212327;28;20442;-75
2021/10/13 03:47:33;;;;;;;9.88;7.60;;;6.20;82.90;;;;;;6196507;28;20422;-76
2021/10/13 03:50:35;;;;;;;9.87;7.30;;;6.20;83.60;;;;;;6196450;28;20418;-76
2021/10/13 03:53:36;;;;;;;9.63;7.68;;;6.20;83.80;;;;;;6196883;28;20429;-75
2021/10/13 03:56:38;;;;;;;10.25;8.10;;;6.20;84.00;;;;;;6197054;28;20438;-75
2021/10/13 03:59:40;;;;;;;8.98;7.78;;;6.20;83.80;;;;;;6196217;28;20418;-75
2021/10/13 04:02:43;;;;;;;8.13;6.50;;;6.10;83.50;;;;;;6196356;28;20533;-75
2021/10/13 04:05:45;;;;;;;9.93;6.88;;;6.10;83.80;;;;;;6196635;28;20433;-75
2021/10/13 04:08:47;;;;;;;8.10;6.43;;;6.10;83.50;;;;;;6197346;28;21133;-75
2021/10/13 04:11:48;;;;;;;7.65;6.45;;;6.10;83.10;;;;;;6196383;28;20423;-76
2021/10/13 04:14:51;;;;;;;6.82;6.10;;;6.10;82.80;;;;;;6196015;28;20423;-76
2021/10/13 04:17:54;;;;;;;9.65;6.60;;;6.00;83.00;;;;;;6196330;28;20493;-76
2021/10/13 04:20:56;;;;;;;7.97;6.97;;;6.00;83.30;;;;;;6196525;28;20434;-75
2021/10/13 04:23:58;;;;;;;9.07;5.97;;;6.00;83.50;;;;;;6196504;28;20569;-75
2021/10/13 04:27:00;;;;;;;8.27;7.47;;;5.90;83.70;;;;;;6196063;28;20422;-75
2021/10/13 04:30:03;;;;;;;12.48;7.25;;;5.90;83.60;;;;;;6195799;28;20422;-76
2021/10/13 04:33:06;;;;;;;11.07;8.57;;;5.90;83.60;;;;;;6196176;28;20465;-76
2021/10/13 04:36:08;;;;;;;10.33;7.30;;;5.90;84.00;;;;;;6196250;28;20543;-76
2021/10/13 04:39:10;;;;;;;11.90;9.73;;;6.00;84.00;;;;;;6195680;28;20432;-76
2021/10/13 04:42:12;;;;;;;14.57;9.43;;;6.00;83.20;;;;;;6195928;28;20425;-76
2021/10/13 04:45:14;;;;;;;11.43;9.25;;;6.00;84.00;;;;;;6200513;28;20577;-76
2021/10/13 04:48:17;;;;;;;12.65;10.18;;;6.00;85.50;;;;;;6220176;28;20799;-76
2021/10/13 04:51:19;;;;;;;12.87;9.57;;;6.10;84.60;;;;;;6223656;28;20425;-76
2021/10/13 04:54:21;;;;;;;10.07;7.95;;;6.10;84.30;;;;;;6225233;28;20507;-76
2021/10/13 04:57:22;;;;;;;10.73;8.68;;;6.10;83.50;;;;;;6224805;28;20782;-76
2021/10/13 05:00:24;;;;;;;9.00;7.50;;;6.20;83.70;;;;;;6225043;28;20494;-76
2021/10/13 05:03:27;;;;;;;8.65;7.68;;;6.10;83.20;;;;;;6224530;28;20519;-76
2021/10/13 05:06:29;;;;;;;10.13;6.95;;;6.20;82.90;;;;;;6224610;28;20494;-76
2021/10/13 05:09:31;;;;;;;10.88;8.38;;;6.20;83.10;;;;;;6224224;28;20425;-75
2021/10/13 05:12:33;;;;;;;15.93;8.30;;;6.20;82.70;;;;;;6225235;28;20494;-75
2021/10/13 05:15:36;;;;;;;10.15;7.28;;;6.20;83.00;;;;;;6224085;28;20495;-75
2021/10/13 05:18:39;;;;;;;9.40;7.57;;;6.20;83.00;;;;;;6224289;28;20416;-75
2021/10/13 05:21:41;;;;;;;10.82;7.40;;;6.20;82.30;;;;;;6224247;28;20425;-75
2021/10/13 05:24:42;;;;;;;9.00;8.10;;;6.20;82.50;;;;;;6224590;28;20922;-75
2021/10/13 05:27:44;;;;;;;10.38;7.72;;;6.20;82.40;;;;;;6224093;28;20424;-75
2021/10/13 05:30:46;;;;;;;10.18;7.43;;;6.30;82.40;;;;;;6223824;28;21009;-75
2021/10/13 05:33:49;;;;;;;8.55;6.28;;;6.30;82.40;;;;;;6223971;28;20412;-75
2021/10/13 05:36:51;;;;;;;9.45;7.70;;;6.40;82.20;;;;;;6224293;28;20436;-75
2021/10/13 05:39:53;;;;;;;11.68;7.40;;;6.50;82.60;;;;;;6223680;28;20421;-75
2021/10/13 05:42:54;;;;;;;9.07;7.23;;;6.60;82.80;;;;;;6223670;28;20424;-74
2021/10/13 05:45:56;;;;;;;9.82;7.35;;;6.60;82.70;;;;;;6213248;28;20431;-75
2021/10/13 05:49:00;;;;;;;8.27;6.00;;;6.70;83.00;;;;;;6221321;28;20856;-75
2021/10/13 05:52:01;;;;;;;8.68;7.00;;;6.90;84.20;;;;;;6224124;28;20436;-75
2021/10/13 05:55:03;;;;;;;7.05;6.25;;;7.00;83.50;;;;;;6223444;28;20417;-75
2021/10/13 05:58:06;;;;;;;10.30;7.50;;;7.10;82.40;;;;;;6223572;28;20421;-75
2021/10/13 06:01:08;;;;;;;9.20;6.22;;;7.10;82.00;;;;;;6221821;28;20448;-75
2021/10/13 06:04:11;;;;;;;9.50;6.90;;;7.20;82.50;;;;;;6224167;28;20957;-75
2021/10/13 06:07:13;;;;;;;10.02;6.53;;;7.20;82.60;;;;;;6223735;28;20439;-75
2021/10/13 06:10:15;;;;;;;9.07;6.93;;;7.30;82.60;;;;;;6223429;28;20482;-75
2021/10/13 06:13:17;;;;;;;10.05;7.72;;;7.40;82.60;;;;;;6223233;28;20436;-75
2021/10/13 06:16:18;;;;;;;11.00;7.70;;;7.40;82.20;;;;;;6223443;28;20439;-75
2021/10/13 06:19:21;;;;;;;11.18;7.15;;;7.50;82.80;;;;;;6222713;28;20468;-75
2021/10/13 06:22:23;;;;;;;38.95;8.43;;;7.60;82.80;;;;;;6222793;28;20424;-75
2021/10/13 06:25:25;;;;;;;18.38;8.70;;;7.60;82.60;;;;;;6222589;28;20759;-75
2021/10/13 06:28:27;;;;;;;16.90;10.05;;;7.60;83.40;;;;;;6223322;28;20439;-75
2021/10/13 06:31:28;;;;;;;17.48;10.90;;;7.70;84.00;;;;;;6222780;28;20584;-75
2021/10/13 06:34:32;;;;;;;18.30;10.50;;;7.80;84.00;;;;;;6222550;28;20420;-75
2021/10/13 06:37:33;;;;;;;14.23;10.10;;;7.90;84.20;;;;;;6222478;28;20953;-75
2021/10/13 06:40:35;;;;;;;12.35;9.00;;;8.00;84.60;;;;;;6222540;28;20436;-75
2021/10/13 06:43:37;;;;;;;15.07;9.60;;;8.10;83.60;;;;;;6222316;28;20477;-75
2021/10/13 06:46:39;;;;;;;13.15;9.27;;;8.20;83.40;;;;;;6213416;28;20430;-76
2021/10/13 06:49:42;;;;;;;13.40;9.32;;;8.30;83.50;;;;;;6218815;28;20424;-75
2021/10/13 06:52:44;;;;;;;11.13;9.13;;;8.40;83.50;;;;;;6222483;28;20432;-75
2021/10/13 06:55:46;;;;;;;9.70;8.70;;;8.60;84.00;;;;;;6221829;28;20416;-76
2021/10/13 06:58:48;;;;;;;11.18;8.48;;;8.80;83.90;;;;;;6221733;28;20423;-76
2021/10/13 07:01:50;;;;;;;10.17;8.33;;;9.00;85.10;;;;;;6221953;28;20921;-76
2021/10/13 07:04:53;;;;;;;10.18;8.40;;;9.10;83.00;;;;;;6222566;28;20444;-75
2021/10/13 07:07:55;;;;;;;11.02;9.25;;;9.30;81.80;;;;;;6223910;28;20423;-76
2021/10/13 07:10:56;;;;;;;12.45;8.90;;;9.50;81.90;;;;;;6224410;28;20478;-75
2021/10/13 07:13:58;;;;;;;11.60;9.05;;;9.60;81.50;;;;;;6223574;28;20925;-75
2021/10/13 07:17:00;;;;;;;11.83;9.60;;;9.70;81.60;;;;;;6221472;28;20455;-76
2021/10/13 07:20:06;;;;;;;14.68;10.43;;;9.80;81.50;;;;;;6221884;28;20432;-76
2021/10/13 07:23:07;;;;;;;14.93;10.73;;;9.90;82.10;;;;;;6221666;28;20424;-76
2021/10/13 07:26:09;;;;;;;14.13;10.37;;;10.00;83.00;;;;;;6221441;28;20552;-76
2021/10/13 07:29:11;;;;;;;11.70;9.13;;;10.30;82.70;;;;;;6221226;28;20444;-75
2021/10/13 07:32:13;;;;;;;13.48;10.50;;;10.50;82.50;;;;;;6224319;28;20527;-77
2021/10/13 07:35:16;;;;;;;15.85;11.85;;;10.50;81.70;;;;;;6222508;28;20421;-76
2021/10/13 07:38:18;;;;;;;17.45;11.48;;;10.60;81.70;;;;;;6222192;28;20423;-76
2021/10/13 07:41:20;;;;;;;16.13;12.70;;;10.70;82.00;;;;;;6221118;28;20409;-76
2021/10/13 07:44:22;;;;;;;16.42;11.27;;;10.90;82.00;;;;;;6221689;28;20444;-75
2021/10/13 07:47:24;;;;;;;12.48;11.20;;;11.10;81.00;;;;;;6214500;28;20796;-75
2021/10/13 07:50:28;;;;;;;15.23;10.20;;;11.40;80.10;;;;;;6198806;28;20468;-75
2021/10/13 07:53:30;;;;;;;11.20;9.40;;;11.70;80.30;;;;;;6196195;28;20422;-75
2021/10/13 07:56:32;;;;;;;10.77;7.65;;;11.90;79.60;;;;;;6196843;28;20496;-75
2021/10/13 07:59:34;;;;;;;8.13;7.30;;;12.00;77.80;;;;;;6196115;28;20501;-75
2021/10/13 08:02:35;;;;;;;12.48;9.02;;;12.00;77.70;;;;;;6196383;28;20429;-75
2021/10/13 08:05:39;;;;;;;14.98;10.90;;;12.10;78.60;;;;;;6196164;28;20418;-75
2021/10/13 08:08:40;;;;;;;14.43;10.15;;;12.30;78.10;;;;;;6213385;28;20802;-75
2021/10/13 08:11:43;;;;;;;11.32;8.82;;;12.40;77.00;;;;;;6220533;28;20804;-75
2021/10/13 08:14:45;;;;;;;11.73;8.75;;;12.60;77.00;;;;;;6220496;28;20421;-75
2021/10/13 08:17:47;;;;;;;12.37;10.00;;;12.70;77.50;;;;;;6220706;28;20474;-75
2021/10/13 08:20:50;;;;;;;14.40;11.18;;;12.80;77.30;;;;;;6220526;28;20506;-75
2021/10/13 08:23:52;;;;;;;11.27;9.77;;;12.90;77.80;;;;;;6219978;28;20417;-75
2021/10/13 08:26:53;;;;;;;12.32;9.48;;;12.90;76.30;;;;;;6219693;28;20425;-75
2021/10/13 08:29:55;;;;;;;12.85;9.10;;;13.10;76.50;;;;;;6220169;28;20427;-75
2021/10/13 08:32:57;;;;;;;11.80;9.52;;;13.20;74.50;;;;;;6220587;28;20813;-75
2021/10/13 08:36:00;;;;;;;14.43;11.50;;;13.30;74.40;;;;;;6220374;28;20429;-75
2021/10/13 08:39:02;;;;;;;13.45;9.38;;;13.30;75.20;;;;;;6219471;28;20903;-75
2021/10/13 08:42:04;;;;;;;13.05;10.93;;;13.40;74.40;;;;;;6215265;28;20985;-75
2021/10/13 08:45:07;;;;;;;18.25;13.07;;;13.50;74.70;;;;;;6221523;28;20459;-76
2021/10/13 08:48:09;;;;;;;11.02;9.73;;;13.50;75.60;;;;;;6217918;28;20481;-75
2021/10/13 08:51:12;;;;;;;14.27;11.45;;;13.50;74.20;;;;;;6213536;28;20421;-76
2021/10/13 08:54:17;;;;;;;13.35;11.63;;;13.60;74.60;;;;;;6219807;28;20409;-76
2021/10/13 08:57:20;;;;;;;11.98;9.85;;;13.60;74.00;;;;;;6220182;28;20409;-76
2021/10/13 09:00:23;;;;;;;10.88;9.27;;;13.50;74.20;;;;;;6219976;28;20439;-75
2021/10/13 09:03:32;;;;;;;12.90;9.98;;;13.50;72.70;;;;;;6219876;28;20428;-76
2021/10/13 09:06:35;;;;;;;14.07;10.85;;;13.70;72.90;;;;;;6219477;28;20423;-76
2021/10/13 09:09:48;;;;;;;14.65;12.13;;;13.70;72.70;;;;;;6219403;28;20417;-76
2021/10/13 09:12:50;;;;;;;14.15;10.00;;;13.50;73.60;;;;;;6219777;28;20433;-76
2021/10/13 09:15:54;;;;;;;15.32;10.07;;;13.40;73.40;;;;;;6219161;28;20428;-76
2021/10/13 09:19:00;;;;;;;10.85;9.75;;;13.40;74.30;;;;;;6219531;28;20415;-76
2021/10/13 09:22:05;;;;;;;16.83;9.23;;;13.40;73.90;;;;;;6219890;28;20424;-76
2021/10/13 09:25:12;;;;;;;9.35;8.35;;;13.50;74.30;;;;;;6220198;28;20440;-77
2021/10/13 09:28:18;;;;;;;10.70;9.07;;;13.70;72.90;;;;;;6222353;28;20519;-77
2021/10/13 09:31:22;;;;;;;11.07;8.50;;;13.90;73.00;;;;;;6220200;28;20432;-76
2021/10/13 09:34:24;;;;;;;9.40;6.65;;;13.90;72.20;;;;;;6219824;28;20421;-76
2021/10/13 09:37:43;;;;;;;12.32;8.27;;;14.00;69.80;;;;;;6223171;28;20896;-76
2021/10/13 09:40:47;;;;;;;7.93;6.53;;;14.00;71.30;;;;;;6221646;28;20433;-76
2021/10/13 09:43:49;;;;;;;10.68;8.00;;;14.00;71.30;;;;;;6221209;28;20420;-78
2021/10/13 09:46:51;;;;;;;10.10;5.82;;;14.40;70.30;;;;;;6224894;28;20425;-77
2021/10/13 09:49:53;;;;;;;7.38;5.53;;;15.10;65.30;;;;;;6212118;28;20414;-78
2021/10/13 09:52:56;;;;;;;10.38;7.15;;;15.50;65.00;;;;;;6224427;28;20443;-78
2021/10/13 09:55:58;;;;;;;9.73;7.32;;;15.60;63.70;;;;;;6224287;28;20408;-76
2021/10/13 09:59:15;;;;;;;11.57;6.35;;;15.50;64.20;;;;;;6224334;28;20791;-78
2021/10/13 10:02:17;;;;;;;7.70;6.30;;;15.30;63.70;;;;;;6224535;28;20421;-78
2021/10/13 10:05:21;;;;;;;6.45;5.03;;;15.20;65.00;;;;;;6225161;28;20412;-78
2021/10/13 10:08:24;;;;;;;5.93;4.30;;;15.00;66.60;;;;;;6225121;28;20503;-77
2021/10/13 10:11:31;;;;;;;9.00;4.45;;;14.90;66.90;;;;;;6224250;28;20794;-77
2021/10/13 10:14:44;;;;;;;9.07;6.73;;;14.80;66.50;;;;;;6224432;28;20428;-78
2021/10/13 10:17:46;;;;;;;17.98;5.90;;;14.80;66.90;;;;;;6224352;28;20416;-77
2021/10/13 10:20:48;;;;;;;6.77;4.60;;;14.90;64.60;;;;;;6224335;28;20444;-77
2021/10/13 10:23:53;;;;;;;8.18;4.43;;;15.10;66.90;;;;;;6224064;28;20444;-78
2021/10/13 10:27:30;;;;;;;5.32;4.53;;;15.30;68.90;;;;;;6224562;28;20421;-78
2021/10/13 10:30:32;;;;;;;5.85;4.88;;;15.60;69.40;;;;;;6220774;28;20417;-78
2021/10/13 10:33:34;;;;;;;8.75;4.80;;;16.00;66.50;;;;;;6224590;28;20601;-78
2021/10/13 10:37:12;;;;;;;8.75;5.22;;;16.30;62.60;;;;;;6224817;28;20519;-78
2021/10/13 10:40:21;;;;;;;8.90;4.85;;;16.50;62.00;;;;;;6223744;28;20416;-77
2021/10/13 10:43:25;;;;;;;8.07;4.30;;;16.80;60.70;;;;;;6223223;28;20479;-77
2021/10/13 10:47:01;;;;;;;6.57;3.80;;;17.00;60.60;;;;;;6223725;28;20767;-77
2021/10/13 10:50:07;;;;;;;7.35;4.38;;;17.20;58.80;;;;;;6223699;28;20446;-78
2021/10/13 10:53:27;;;;;;;6.55;3.33;;;17.20;58.00;;;;;;6199517;28;20564;-78
2021/10/13 10:56:31;;;;;;;7.90;3.10;;;17.30;58.20;;;;;;6199905;28;20449;-78
2021/10/13 10:59:39;;;;;;;7.50;3.90;;;17.50;58.50;;;;;;6198636;28;20493;-77
2021/10/13 11:02:41;;;;;;;6.28;2.90;;;17.80;58.80;;;;;;6198572;28;20559;-77
2021/10/13 11:05:43;;;;;;;8.50;3.83;;;18.00;56.90;;;;;;6199001;28;20419;-78
2021/10/13 11:09:03;;;;;;;7.70;3.95;;;18.20;55.30;;;;;;6198525;28;20448;-77
2021/10/13 11:12:06;;;;;;;6.25;3.55;;;18.30;54.80;;;;;;6211613;28;20809;-77
2021/10/13 11:15:09;;;;;;;4.63;2.85;;;18.00;53.40;;;;;;6221859;28;20458;-77
2021/10/13 11:18:12;;;;;;;7.18;3.08;;;17.60;54.10;;;;;;6222144;28;20417;-76
2021/10/13 11:21:15;;;;;;;7.73;3.97;;;17.20;55.00;;;;;;6221409;28;20525;-76
2021/10/13 11:24:19;;;;;;;3.63;2.85;;;16.90;58.30;;;;;;6222743;28;20441;-79
2021/10/13 11:27:25;;;;;;;6.90;3.38;;;17.00;57.00;;;;;;6221944;28;20420;-76
2021/10/13 11:30:28;;;;;;;7.07;2.92;;;17.40;56.80;;;;;;6221324;28;20948;-76
2021/10/13 11:33:29;;;;;;;10.63;3.55;;;17.90;55.00;;;;;;6221621;28;20458;-77
2021/10/13 11:36:31;;;;;;;4.57;2.75;;;18.40;53.60;;;;;;6221821;28;20442;-77
2021/10/13 11:39:34;;;;;;;8.48;2.70;;;18.90;51.10;;;;;;6221152;28;20791;-77
2021/10/13 11:42:38;;;;;;;5.47;2.78;;;19.40;51.80;;;;;;6220994;28;20930;-77
2021/10/13 11:45:47;;;;;;;5.15;2.85;;;20.10;49.20;;;;;;6221090;28;20417;-77
2021/10/13 11:48:49;;;;;;;5.53;2.03;;;20.90;48.10;;;;;;6221576;28;20470;-77
2021/10/13 11:52:05;;;;;;;6.05;2.90;;;21.20;46.10;;;;;;6211687;28;20420;-76
2021/10/13 11:55:10;;;;;;;7.93;2.67;;;21.00;45.60;;;;;;6220255;28;20930;-77
2021/10/13 11:58:23;;;;;;;4.90;2.70;;;20.60;45.20;;;;;;6221361;28;20898;-77
2021/10/13 12:01:28;;;;;;;3.65;1.92;;;20.10;46.20;;;;;;6220494;28;20413;-77
2021/10/13 12:04:30;;;;;;;4.30;2.60;;;19.70;47.90;;;;;;6221306;28;20435;-78
2021/10/13 12:07:41;;;;;;;5.38;2.30;;;19.30;47.70;;;;;;6220863;28;20413;-78
2021/10/13 12:10:45;;;;;;;4.40;2.50;;;19.00;49.00;;;;;;6220702;28;20431;-78
2021/10/13 12:13:51;;;;;;;4.40;2.35;;;18.70;50.20;;;;;;6220263;28;20927;-78
2021/10/13 12:16:53;;;;;;;6.80;2.20;;;18.40;51.20;;;;;;6221138;28;20485;-78
2021/10/13 12:19:55;;;;;;;9.15;3.65;;;18.10;52.20;;;;;;6220297;28;20474;-78
2021/10/13 12:22:57;;;;;;;5.28;2.70;;;17.80;55.20;;;;;;6221166;28;21146;-77
2021/10/13 12:25:59;;;;;;;9.73;6.90;;;17.50;56.20;;;;;;6219978;28;20413;-76
2021/10/13 12:29:08;;;;;;;4.68;2.72;;;17.10;58.80;;;;;;6220589;28;20432;-76
2021/10/13 12:32:17;;;;;;;2.65;2.25;;;16.50;59.40;;;;;;6220410;28;20579;-75
2021/10/13 12:35:19;;;;;;;1.92;1.05;;;15.80;60.60;;;;;;6220306;28;20417;-76
2021/10/13 12:38:21;;;;;;;2.40;1.70;;;15.20;63.10;;;;;;6219830;28;20417;-76
2021/10/13 12:41:30;;;;;;;3.92;3.20;;;14.70;64.30;;;;;;6219829;28;20420;-76
2021/10/13 12:44:34;;;;;;;4.63;3.10;;;14.30;65.00;;;;;;6219819;28;20473;-76
2021/10/13 12:47:36;;;;;;;2.75;1.05;;;14.00;66.50;;;;;;6220394;28;20440;-76
2021/10/13 12:50:38;;;;;;;2.63;1.03;;;13.90;69.80;;;;;;6219799;28;20496;-76
2021/10/13 12:53:40;;;;;;;3.90;1.58;;;13.70;70.20;;;;;;6210093;28;20505;-76
2021/10/13 12:56:42;;;;;;;3.45;1.23;;;13.50;71.90;;;;;;6220423;28;20806;-76
2021/10/13 12:59:46;;;;;;;1.88;1.13;;;13.40;71.80;;;;;;6219918;28;20417;-76
2021/10/13 13:02:48;;;;;;;2.15;1.40;;;13.30;73.40;;;;;;6220215;28;20417;-76
2021/10/13 13:05:50;;;;;;;4.13;1.38;;;13.20;74.10;;;;;;6219478;28;20420;-76
2021/10/13 13:08:52;;;;;;;1.40;1.10;;;13.20;75.20;;;;;;6220259;28;20436;-76
2021/10/13 13:11:54;;;;;;;1.10;1.00;;;13.30;74.40;;;;;;6222495;28;20417;-76
2021/10/13 13:14:57;;;;;;;3.38;1.58;;;13.30;73.00;;;;;;6224625;28;20419;-76
2021/10/13 13:17:59;;;;;;;1.75;0.82;;;13.30;73.00;;;;;;6224368;28;20422;-76
2021/10/13 13:21:01;;;;;;;1.58;1.10;;;13.40;73.10;;;;;;6224578;28;20547;-75
2021/10/13 13:24:03;;;;;;;2.17;1.50;;;13.50;73.50;;;;;;6225143;28;20914;-76
2021/10/13 13:27:05;;;;;;;1.25;0.90;;;13.50;73.00;;;;;;6224132;28;20408;-75
2021/10/13 13:30:09;;;;;;;1.50;1.23;;;13.50;71.50;;;;;;6224036;28;20424;-75
2021/10/13 13:33:11;;;;;;;1.50;0.95;;;13.40;71.80;;;;;;6224038;28;20439;-76
2021/10/13 13:36:16;;;;;;;2.30;1.10;;;13.40;70.90;;;;;;6224362;28;20802;-76
2021/10/13 13:39:17;;;;;;;1.38;0.85;;;13.40;71.80;;;;;;6223519;28;20424;-76
2021/10/13 13:42:19;;;;;;;3.72;1.10;;;13.50;70.10;;;;;;6217968;28;20432;-75
2021/10/13 13:45:22;;;;;;;2.20;1.10;;;13.50;72.40;;;;;;6223382;28;20415;-75
2021/10/13 13:48:24;;;;;;;2.70;1.30;;;13.50;72.70;;;;;;6224656;28;20432;-75
2021/10/13 13:51:26;;;;;;;1.33;0.80;;;13.50;71.10;;;;;;6223513;28;20431;-77
2021/10/13 13:54:28;;;;;;;1.92;1.17;;;13.60;68.80;;;;;;6211624;28;20422;-76
2021/10/13 13:57:29;;;;;;;2.40;1.15;;;13.70;69.30;;;;;;6223524;28;20417;-76
2021/10/13 14:00:33;;;;;;;2.72;0.98;;;13.80;69.30;;;;;;6223856;28;20436;-76
2021/10/13 14:03:34;;;;;;;1.30;0.90;;;13.80;69.00;;;;;;6223394;28;20416;-76
2021/10/13 14:06:36;;;;;;;2.38;1.08;;;13.90;69.20;;;;;;6223361;28;20421;-76
2021/10/13 14:09:38;;;;;;;2.60;1.40;;;14.00;71.90;;;;;;6223072;28;20424;-76
2021/10/13 14:12:40;;;;;;;1.00;0.90;;;14.40;70.60;;;;;;6223247;28;20523;-76
2021/10/13 14:15:45;;;;;;;2.22;1.50;;;14.80;65.70;;;;;;6223019;28;20421;-77
2021/10/13 14:18:46;;;;;;;0.75;0.70;;;15.00;65.10;;;;;;6222881;28;20425;-76
2021/10/13 14:21:48;;;;;;;1.00;0.82;;;14.90;66.40;;;;;;6222881;28;20427;-75
2021/10/13 14:24:50;;;;;;;1.63;1.00;;;14.90;62.70;;;;;;6222495;28;20492;-77
2021/10/13 14:27:52;;;;;;;2.03;0.80;;;14.90;66.00;;;;;;6223087;28;20421;-75
2021/10/13 14:30:55;;;;;;;1.27;0.75;;;15.20;65.90;;;;;;6222003;28;20432;-75
2021/10/13 14:33:57;;;;;;;2.50;1.10;;;15.60;62.10;;;;;;6222435;28;20462;-75
2021/10/13 14:36:59;;;;;;;1.70;1.20;;;15.80;61.10;;;;;;6222530;28;20812;-77
2021/10/13 14:40:01;;;;;;;1.60;0.70;;;16.20;60.20;;;;;;6222738;28;20933;-77
2021/10/13 14:43:04;;;;;;;4.20;2.72;;;16.70;55.20;;;;;;6216039;28;20547;-77
2021/10/13 14:46:07;;;;;;;2.95;0.88;;;16.70;56.00;;;;;;6222023;28;20420;-77
2021/10/13 14:49:09;;;;;;;2.15;0.82;;;16.80;57.20;;;;;;6222075;28;20442;-77
2021/10/13 14:52:13;;;;;;;1.50;0.90;;;17.10;55.20;;;;;;6223076;28;20825;-78
2021/10/13 14:55:14;;;;;;;0.98;0.65;;;17.40;53.90;;;;;;6210147;28;20413;-77
2021/10/13 14:58:16;;;;;;;1.65;0.85;;;17.50;52.70;;;;;;6197876;28;20446;-77
2021/10/13 15:01:22;;;;;;;1.52;0.82;;;17.40;53.80;;;;;;6198180;28;20515;-77
2021/10/13 15:04:25;;;;;;;0.77;0.68;;;17.30;53.00;;;;;;6198482;28;20434;-77
2021/10/13 15:07:27;;;;;;;1.70;0.70;;;17.20;53.50;;;;;;6197720;28;20445;-77
2021/10/13 15:10:28;;;;;;;0.80;0.77;;;17.10;53.30;;;;;;6197912;28;20426;-77
2021/10/13 15:13:30;;;;;;;1.27;0.77;;;16.90;55.10;;;;;;6221775;28;20424;-77
2021/10/13 15:16:33;;;;;;;1.58;0.80;;;16.70;56.10;;;;;;6222156;28;20436;-77
2021/10/13 15:19:35;;;;;;;1.00;0.60;;;16.50;55.50;;;;;;6221819;28;20421;-77
2021/10/13 15:22:37;;;;;;;2.33;0.88;;;16.30;57.10;;;;;;6222165;28;20524;-77
2021/10/13 15:25:40;;;;;;;1.63;1.10;;;16.10;59.10;;;;;;6221604;28;20413;-76
2021/10/13 15:28:41;;;;;;;1.00;0.88;;;15.80;61.40;;;;;;6221802;28;20433;-76
2021/10/13 15:31:45;;;;;;;1.15;1.00;;;15.70;61.60;;;;;;6221379;28;20502;-76
2021/10/13 15:34:47;;;;;;;3.25;2.70;;;15.50;63.60;;;;;;6221351;28;20559;-76
2021/10/13 15:37:49;;;;;;;2.40;1.83;;;15.30;65.40;;;;;;6221624;28;20417;-76
2021/10/13 15:40:51;;;;;;;4.72;4.32;;;15.10;67.90;;;;;;6218009;28;20916;-76
2021/10/13 15:43:52;;;;;;;4.93;4.35;;;15.00;69.50;;;;;;6218154;28;20448;-76
2021/10/13 15:46:55;;;;;;;6.78;5.20;;;14.70;70.80;;;;;;6220704;28;20417;-75
2021/10/13 15:49:57;;;;;;;3.78;3.45;;;14.40;71.10;;;;;;6221001;28;20420;-75
2021/10/13 15:52:59;;;;;;;29.52;20.92;;;14.20;72.10;;;;;;6221130;28;20441;-75
2021/10/13 15:56:01;;;;;;;49.58;37.25;;;14.00;72.00;;;;;;6211938;28;20428;-76